Weather observations for the past three days for
Stephenville, Clark Field Municipal Airport
Imperial (Metric)
Date Time (cdt) Wind (mph) Vis. (mi.) Weather Sky Cond. Temperature (ºF) Relative Humidity Wind Chill (°F) Heat Index (°F) Pressure Precipitation (in)
Air Dwpt 6 hour altimeter (in) sea level (mb) 1 hr 3 hr 6 hr
Max. Min.
07 15:15 SE 8 10.00 Fair CLR 67.1 49.3 53% 30.07 0.0
07 14:55 SE 5 10.00 Partly Cloudy SCT110 67.5 48.9 52% 30.08 0.0
07 14:35 E 7 10.00 Partly Cloudy SCT110 67.6 48.7 51% 30.08 0.0
07 14:15 E 7 10.00 Partly Cloudy SCT110 67.5 48.7 51% 30.07 0.0
07 13:55 E 3 10.00 Fair CLR 68 48.7 50% 30.09 0.0
07 13:35 SE 6 10.00 Fair CLR 67.5 47.8 50% 30.1 0.0
07 13:15 NE 8 10.00 Fair CLR 68.4 49.1 50% 30.1 0.0
07 12:55 E 10 10.00 Fair CLR 67.1 48.7 67.3 50 52% 30.1 0.0
07 12:35 NE 8 10.00 Fair CLR 66.6 48.6 53% 30.11 0.0
07 12:15 NE 9 10.00 Fair CLR 64.4 46.9 53% 30.11 0.0
07 11:55 NE 9 10.00 Fair CLR 63.5 48.2 58% 30.12 0.0
07 11:35 NE 7 10.00 Fair CLR 63 48.4 59% 30.13 0.0
07 11:15 E 3 10.00 Fair CLR 62.1 48.7 62% 30.15 0.0
07 10:55 NE 9 10.00 Fair CLR 62.1 48.4 61% 30.14 0.0
07 10:35 NE 7 10.00 Fair CLR 61.7 49.1 64% 30.14 0.0
07 10:15 NE 8 10.00 Fair CLR 60.4 49.1 66% 30.14 0.0
07 09:55 NE 7 10.00 Fair CLR 59 48.6 68% 30.15 0.0
07 09:35 NE 8 10.00 Fair CLR 58.1 48.9 72% 30.15 0.0
07 09:15 NE 7 10.00 Fair CLR 56.8 48.9 75% 30.15 0.0
07 08:55 NE 5 10.00 Fair CLR 55.4 49.3 80% 30.15 0.0
07 08:35 N 7 10.00 Fair CLR 53.8 49.1 84% 30.14 0.0
07 08:15 N 5 10.00 Fair CLR 52.3 48.2 86% 30.15 0.0
07 07:55 N 3 10.00 Fair CLR 51.4 47.7 87% 30.16 0.0
07 07:35 N 5 10.00 Fair CLR 50.9 47.5 88% 30.16 0.0
07 07:15 N 3 10.00 Fair CLR 50.4 46.9 88% 30.16 0.0
07 06:55 N 6 10.00 Fair CLR 50 46.8 54.5 49.6 89% 48 30.15 0.0
07 06:35 N 3 10.00 Fair CLR 50 46.6 88% 30.16 0.0
07 06:15 N 3 10.00 Fair CLR 49.6 46.6 89% 30.15 0.0
07 05:55 N 3 10.00 Fair CLR 50.4 46.8 88% 30.14 0.0
07 05:35 N 5 10.00 Fair CLR 50.9 47.3 88% 30.14 0.0
07 05:15 N 3 10.00 Fair CLR 51.6 47.5 86% 30.13 0.0
07 04:55 N 9 10.00 Partly Cloudy SCT017 SCT080 SCT110 52 47.8 86% 30.11 0.0
07 04:35 N 9 10.00 Mostly Cloudy SCT016 BKN021 BKN080 52.7 48.2 85% 30.11 0.0
07 04:15 N 9 10.00 Overcast OVC021 53.4 48.7 84% 30.09 0.0
07 03:55 N 8 10.00 Overcast OVC021 53.6 49.1 85% 30.09 0.0
07 03:35 N 7 10.00 Overcast OVC019 53.6 49.1 85% 30.09 0.0
07 03:15 N 5 10.00 Overcast OVC019 53.2 49.3 87% 30.09 0.0
07 02:55 N 3 10.00 Mostly Cloudy BKN019 BKN080 BKN100 53.6 49.1 85% 30.09 0.0
07 02:35 N 5 10.00 Overcast OVC017 53.8 49.6 86% 30.08 0.0
07 02:15 N 6 10.00 Overcast OVC017 53.8 49.8 87% 30.06 0.0
07 01:55 N 3 10.00 Overcast OVC017 54.1 50 86% 30.07 0.0
07 01:35 N 5 10.00 Mostly Cloudy BKN017 BKN090 BKN120 53.8 49.8 87% 30.06 0.0
07 01:15 NE 6 10.00 Fair CLR 54 49.6 85% 30.06 0.0
07 00:55 NE 6 10.00 Partly Cloudy SCT120 54.5 50 64.6 54.5 85% 30.05 0.0
07 00:35 NE 7 10.00 Partly Cloudy SCT110 54.5 50.2 85% 30.05 0.0
07 00:15 NE 6 10.00 Fair CLR 55.4 50.4 83% 30.05 0.0
06 23:55 NE 6 10.00 Partly Cloudy SCT120 55.8 50.5 83% 30.04 0.0
06 23:35 NE 7 10.00 Fair CLR 56.3 50.9 82% 30.05 0.0
06 23:15 NE 7 10.00 Partly Cloudy SCT120 56.3 51.1 83% 30.05 0.0
06 22:55 NE 7 10.00 Partly Cloudy SCT110 56.3 51.3 83% 30.05 0.0
06 22:35 N 6 10.00 Partly Cloudy SCT110 56.7 51.1 82% 30.06 0.0
06 22:15 N 6 10.00 Fair CLR 57 51.3 81% 30.04 0.0
06 21:55 N 6 10.00 Fair CLR 57.7 51.8 81% 30.04 0.0
06 21:35 N 7 10.00 Fair CLR 58.1 52.7 82% 30.03 0.0
06 21:15 N 6 10.00 Partly Cloudy SCT025 SCT110 58.3 53.1 83% 30.03 0.0
06 20:55 N 3 10.00 Mostly Cloudy SCT025 BKN120 59 53.1 81% 30.02 0.0
06 20:35 Calm 10.00 Fair CLR 59.5 53.1 79% 30 0.0
06 20:15 Calm 10.00 Fair CLR 60.3 53.1 77% 29.99 0.0
06 19:55 E 5 10.00 Fair CLR 61.2 53.2 75% 29.98 0.0
06 19:35 E 5 10.00 Fair CLR 62.2 53.4 73% 29.98 0.0
06 19:15 E 6 10.00 Fair CLR 63.5 53.4 70% 29.98 0.0
06 18:55 E 6 10.00 Fair CLR 64.6 52.9 64.8 53.6 66% 29.97 0.0
06 18:35 NE 5 10.00 Fair CLR 64.8 52.7 65% 29.97 0.0
06 18:15 NE 7 10.00 Fair CLR 63.7 52.2 66% 29.96 0.0
06 17:55 NE 7 10.00 Fair CLR 64.6 52.5 65% 29.96 0.0
06 17:35 NE 10 10.00 Fair CLR 64.2 52.2 65% 29.95 0.0
06 17:15 NE 6 10.00 Partly Cloudy SCT060 SCT070 SCT090 63.5 52 66% 29.95 0.0
06 16:55 NE 8 10.00 Mostly Cloudy SCT043 BKN050 BKN070 62.2 51.6 68% 29.95 0.0
06 16:35 N 5 10.00 Overcast BKN043 OVC055 61.3 51.3 70% 29.97 0.0
06 16:15 N 6 10.00 Overcast SCT032 OVC041 61.3 51.4 70% 29.97 0.0
06 15:55 N 7 10.00 Overcast OVC030 61 51.3 71% 29.97 0.0
06 15:35 N 8 10.00 Overcast OVC030 60.8 51.1 71% 29.96 0.0
06 15:15 N 8 10.00 Overcast SCT018 OVC028 61 51.3 71% 29.98 0.0
06 14:55 N 8 10.00 Overcast SCT016 OVC026 59.7 50.4 71% 29.99 0.0
06 14:35 N 7 10.00 Overcast BKN016 OVC026 58.5 50 74% 29.99 0.0
06 14:15 N 9 10.00 Overcast OVC014 57.4 49.5 75% 30 0.0
06 13:55 N 6 10.00 Overcast OVC010 55.8 49.3 79% 30 0.0
06 13:35 N 6 10.00 Overcast OVC010 54.5 49.1 82% 30.01 0.0
06 13:15 N 8 10.00 Overcast OVC008 53.8 48.4 82% 30.02 0.0
06 12:55 N 9 10.00 Overcast OVC008 53.6 48.4 53.6 50.5 83% 30.01 0.0 0.02
06 12:35 N 12 10.00 Overcast OVC006 52.9 48.9 87% 29.99 0.0
06 12:15 N 14 10.00 Overcast OVC006 52.9 48.6 85% 29.99 0.0
06 11:55 N 16 G 22 10.00 Overcast OVC006 52.2 48.6 88% 29.99 0.0
06 11:35 N 12 G 16 10.00 Overcast OVC006 52.7 48.6 86% 29.99 0.0
06 11:15 N 9 10.00 Overcast OVC006 52.2 48.7 88% 30 0.0
06 10:55 N 12 10.00 Overcast OVC006 52 48.7 89% 29.98 0.0
06 10:35 NE 8 G 17 10.00 Overcast OVC006 51.8 48.7 89% 29.99 0.0
06 10:15 N 16 G 21 10.00 Overcast BKN008 OVC017 52.9 50.2 91% 29.95 0.0
06 09:55 N 9 10.00 Mostly Cloudy SCT008 BKN016 BKN120 50.9 48.2 91% 29.97 0.0 0.02 0.02
06 09:35 N 5 10.00 Overcast BKN014 BKN035 OVC110 50.5 47.5 89% 30.02 0.0
06 09:15 N 9 10.00 Overcast BKN011 BKN018 OVC120 50.7 47.1 88% 30.01 0.0
06 08:55 N 12 10.00 Overcast BKN011 OVC017 51.4 46.6 84% 30 0.0
06 08:35 N 13 G 21 10.00 Overcast OVC013 51.8 45.7 80% 29.94 0.0
06 08:15 N 16 10.00 Overcast OVC011 51.8 45.9 80% 29.98 0.0
06 07:55 N 14 10.00 Overcast OVC011 52 46.2 81% 29.96 0.0
06 07:35 N 15 10.00 Overcast OVC011 52.7 46.8 80% 29.94 0.0
06 07:15 N 14 10.00 Overcast OVC013 52.9 47.3 81% 29.93 0.0
06 06:55 N 14 G 17 10.00 Overcast OVC015 53.6 47.3 59.9 53.6 79% 29.92 0.0
06 06:35 N 10 10.00 Overcast OVC015 54 47.5 79% 29.92 0.0
06 06:15 N 13 10.00 Overcast OVC015 54.7 48.2 79% 29.92 0.0
06 05:55 N 13 G 16 10.00 Overcast OVC015 55.4 48.7 78% 29.9 0.0
06 05:35 N 10 10.00 Overcast OVC017 55.8 49.5 80% 29.89 0.0
06 05:15 N 10 10.00 Overcast OVC017 55.9 49.6 80% 29.88 0.0
06 04:55 N 10 10.00 Overcast OVC017 56.5 50.2 80% 29.88 0.0
06 04:35 N 12 10.00 Overcast OVC017 56.5 50.4 80% 29.87 0.0
06 04:15 N 10 10.00 Overcast OVC019 57.2 50.9 80% 29.87 0.0
06 03:55 N 12 10.00 Overcast OVC019 57.2 50.9 80% 29.87 0.0
06 03:35 N 12 10.00 Overcast OVC019 57.4 50.9 79% 29.87 0.0
06 03:15 N 9 10.00 Overcast OVC019 57.6 51.1 79% 29.86 0.0
06 02:55 N 9 10.00 Overcast OVC019 58.1 51.4 79% 29.86 0.0
06 02:35 N 9 10.00 Overcast OVC019 57.9 51.8 80% 29.86 0.0
06 02:15 N 9 10.00 Partly Cloudy SCT019 SCT070 SCT110 57.6 52 82% 29.86 0.0
06 01:55 N 6 10.00 Fair CLR 58.1 52 80% 29.84 0.0
06 01:35 N 6 10.00 Fair CLR 58.1 52.2 81% 29.84 0.0
06 01:15 N 6 10.00 Fair CLR 59 52.3 79% 29.84 0.0
06 00:55 N 7 10.00 Partly Cloudy SCT035 SCT070 SCT100 59.9 52.7 88.3 59.9 77% 29.84 0.0
06 00:35 N 7 10.00 Partly Cloudy SCT100 60.6 53.1 76% 29.85 0.0
06 00:15 N 9 10.00 Fair CLR 61.7 53.8 75% 29.85 0.0
05 23:55 N 12 10.00 Partly Cloudy SCT110 63 54.7 75% 29.85 0.0
05 23:35 N 9 10.00 Partly Cloudy SCT110 63.9 54.9 73% 29.84 0.0
05 23:15 NE 9 10.00 Partly Cloudy SCT110 64.6 54.9 71% 29.84 0.0
05 22:55 N 9 10.00 Partly Cloudy SCT120 65.3 54.7 69% 29.84 0.0
05 22:35 N 14 10.00 Fair CLR 66.4 55.6 68% 29.84 0.0
05 22:15 N 12 10.00 Fair CLR 67.1 56.3 68% 29.83 0.0
05 21:55 N 8 10.00 Fair CLR 67.8 55.8 65% 29.81 0.0
05 21:35 N 7 10.00 Fair CLR 68.2 55.6 64% 29.79 0.0
05 21:15 N 8 10.00 Fair CLR 69.1 55.8 63% 29.78 0.0
05 20:55 N 10 G 17 10.00 Fair CLR 70.3 56.3 61% 29.77 0.0
05 20:35 N 12 G 16 10.00 Fair CLR 72 58.1 62% 29.75 0.0
05 20:15 N 10 G 17 10.00 Fair CLR 74.3 59.2 59% 29.74 0.0
05 19:55 N 10 G 17 10.00 Fair CLR 76.6 60.1 57% 78 29.73 0.0
05 19:35 N 9 10.00 Fair CLR 80.2 61.7 53% 81 29.72 0.0
05 19:15 N 13 G 18 10.00 Fair CLR 84 60.8 46% 84 29.71 0.0
05 18:55 S 8 10.00 Fair CLR 88.5 59.7 90.7 83.5 38% 88 29.71 0.0
05 18:35 SW 5 10.00 Fair CLR 88.9 60.1 38% 89 29.7 0.0
05 18:15 S 7 10.00 Fair CLR 88.7 60.3 38% 88 29.7 0.0
05 17:55 S 7 10.00 Fair CLR 88.7 60.3 38% 88 29.7 0.0
05 17:15 SW 7 10.00 Fair CLR 89.2 58.3 35% 88 29.7 0.0
05 16:55 SW 7 10.00 Fair CLR 90.5 57.6 33% 89 29.7 0.0
05 16:35 SW 9 10.00 Fair CLR 89.8 57.7 34% 89 29.7 0.0
05 16:15 SW 7 10.00 Fair CLR 90.1 59.9 36% 90 29.7 0.0
05 15:55 SW 6 10.00 Fair CLR 88.9 60.3 38% 89 29.71 0.0
05 15:35 SW 6 10.00 Fair CLR 88.7 63.1 43% 90 29.72 0.0
05 15:15 S 7 10.00 Fair CLR 89.1 64.8 45% 91 29.72 0.0
05 14:55 W 12 G 16 10.00 Fair CLR 88.2 63.3 44% 89 29.73 0.0
05 14:35 SW 10 10.00 Fair CLR 87.4 63 44% 88 29.73 0.0
05 14:15 SW 8 10.00 Fair CLR 86.9 64.8 48% 89 29.74 0.0
05 13:55 W 12 10.00 Fair CLR 86.7 64.4 47% 88 29.75 0.0
05 13:35 SW 12 G 16 10.00 Fair CLR 85.5 64.6 50% 87 29.75 0.0
05 13:15 SW 12 G 16 10.00 Fair CLR 84.9 64.8 51% 87 29.75 0.0
05 12:55 SW 9 G 16 10.00 Fair CLR 83.5 65.3 83.5 64.9 54% 85 29.75 0.0
05 12:35 SW 12 G 17 10.00 Fair CLR 81.5 64.9 57% 83 29.76 0.0
05 12:15 SW 12 10.00 Fair CLR 80.1 65.5 61% 82 29.76 0.0
05 11:55 SW 12 G 17 10.00 Fair CLR 79.2 65.5 63% 81 29.76 0.0
05 11:35 SW 12 G 17 10.00 Fair CLR 79.2 65.7 63% 81 29.76 0.0
05 11:15 SW 12 G 20 10.00 Fair CLR 77.9 64.8 64% 80 29.76 0.0
05 10:55 SW 14 10.00 Fair CLR 77.4 65.1 66% 79 29.75 0.0
05 10:35 SW 13 G 20 10.00 Fair CLR 76.6 65.5 69% 78 29.75 0.0
05 10:15 SW 16 G 21 10.00 Fair CLR 75.7 65.1 70% 77 29.75 0.0
05 09:55 SW 13 G 21 10.00 Fair CLR 74.8 64.9 71% 29.76 0.0
05 09:35 SW 12 G 18 10.00 Fair CLR 73.6 64.9 74% 29.75 0.0
05 09:15 SW 15 G 20 10.00 Fair CLR 72 64.4 77% 29.75 0.0
05 08:55 S 10 G 16 10.00 Fair CLR 70.9 64.6 81% 29.75 0.0
05 08:35 S 8 10.00 Fair CLR 69.8 64.4 83% 29.74 0.0
05 08:15 S 7 10.00 Fair CLR 68.4 64 86% 29.74 0.0
05 07:55 S 8 10.00 Fair CLR 67.8 63.7 87% 29.73 0.0
05 07:35 S 6 10.00 Fair CLR 65.8 62.6 89% 29.73 0.0
05 07:15 S 5 10.00 Fair CLR 65.3 62.6 91% 29.73 0.0
05 06:55 S 6 10.00 Fair CLR 65.3 62.1 70.3 64.9 89% 29.72 0.0
05 06:35 S 6 10.00 Fair CLR 65.1 61.9 89% 29.72 0.0
05 06:15 S 6 10.00 Fair CLR 65.3 61.9 89% 29.71 0.0
05 05:55 S 6 10.00 Fair CLR 65.5 61.9 88% 29.71 0.0
05 05:35 S 6 10.00 Fair CLR 65.3 61.7 88% 29.71 0.0
05 05:15 S 7 10.00 Fair CLR 65.7 61.7 87% 29.71 0.0
05 04:55 S 7 10.00 Fair CLR 65.7 61.7 87% 29.71 0.0
05 04:35 S 7 10.00 Fair CLR 65.7 61.7 87% 29.72 0.0
05 04:15 S 6 10.00 Fair CLR 65.3 61.5 88% 29.73 0.0
05 03:55 S 6 10.00 Fair CLR 65.7 61.5 87% 29.73 0.0
05 03:35 S 7 10.00 Fair CLR 66.2 61.5 85% 29.73 0.0
05 03:15 S 6 10.00 Fair CLR 66.6 61.7 84% 29.73 0.0
05 02:55 S 7 10.00 Fair CLR 67.3 61.9 83% 29.74 0.0
05 02:35 S 7 10.00 Fair CLR 68.4 61.9 80% 29.74 0.0
05 02:15 S 7 10.00 Fair CLR 68.9 61.9 78% 29.75 0.0
05 01:55 S 8 10.00 Fair CLR 69.6 62.1 77% 29.75 0.0
05 01:35 S 8 10.00 Fair CLR 69.8 61.9 76% 29.76 0.0
05 01:15 S 7 10.00 Fair CLR 70.2 61.9 75% 29.77 0.0
05 00:55 S 7 10.00 Fair CLR 70.3 61.9 79.7 70.3 75% 29.77 0.0
05 00:35 S 9 10.00 Fair CLR 71.2 61.9 72% 29.76 0.0
05 00:15 S 10 G 16 10.00 Fair CLR 72 61.9 71% 29.76 0.0
04 23:55 S 12 G 17 10.00 Fair CLR 72.5 61.9 69% 29.76 0.0
04 23:35 S 12 10.00 Fair CLR 73.2 61.9 68% 29.76 0.0
04 23:15 S 13 G 20 10.00 Fair CLR 73.6 61.9 67% 29.76 0.0
04 22:55 S 13 G 17 10.00 Fair CLR 73.8 61.9 67% 29.76 0.0
04 22:35 S 12 G 17 10.00 Fair CLR 74.3 61.9 65% 29.76 0.0
04 22:15 S 13 G 18 10.00 Fair CLR 74.3 61.9 65% 29.76 0.0
04 21:55 S 12 G 17 10.00 Fair CLR 74.7 61.7 64% 29.75 0.0
04 21:35 S 9 10.00 Fair CLR 75.2 61.9 63% 77 29.75 0.0
04 21:15 S 9 10.00 Fair CLR 75.7 61.9 62% 78 29.75 0.0
04 20:55 S 9 10.00 Fair CLR 76.5 61.7 60% 78 29.75 0.0
04 20:35 S 9 10.00 Fair CLR 77 61.7 59% 79 29.74 0.0
04 20:15 S 10 10.00 Fair CLR 77.9 61.7 58% 79 29.74 0.0
04 19:55 S 8 10.00 Fair CLR 78.3 61.7 57% 80 29.74 0.0
04 19:35 S 8 10.00 Fair CLR 79 62.1 56% 80 29.74 0.0
04 19:15 S 10 G 17 10.00 Fair CLR 79.7 61.7 54% 81 29.75 0.0
04 18:55 S 9 10.00 Fair CLR 79.3 62.1 82.4 77.2 56% 81 29.75 0.0
04 18:35 S 9 G 17 10.00 Fair CLR 79.3 61.9 55% 81 29.75 0.0
04 18:15 S 13 G 23 10.00 Fair CLR 80.4 61.9 53% 82 29.76 0.0
04 17:55 S 15 G 23 10.00 Fair CLR 81.1 61.5 51% 82 29.77 0.0
04 17:35 S 13 G 20 10.00 Fair CLR 80.8 61.7 52% 82 29.77 0.0
04 17:15 S 14 G 21 10.00 Fair CLR 81.7 61.3 50% 82 29.78 0.0
04 16:55 S 13 G 18 10.00 Fair CLR 81.1 61 50% 82 29.78 0.0
04 16:35 S 13 G 24 10.00 Fair CLR 81 61 51% 82 29.8 0.0
04 16:15 S 12 G 22 10.00 Fair CLR 81.7 61.2 50% 82 29.8 0.0
04 15:55 S 15 G 21 10.00 Fair CLR 81.9 61 49% 83 29.82 0.0
04 15:35 S 13 G 20 10.00 Fair CLR 81.3 61 50% 82 29.82 0.0
Date Time (cdt) Wind (mph) Vis. (mi.) Weather Sky Cond. Air Dwpt Max. Min. Relative Humidity Wind Chill (°F) Heat Index (°F) altimeter (in) sea level (mb) 1 hr 3 hr 6 hr
6 hour
Temperature (ºF) Pressure Precipitation (in)